sensor_id;sensor_type;location;lat;lon;timestamp;P1;durP1;ratioP1;P2;durP2;ratioP2
54197;SDS011;40105;52.366;17.000;2022-10-31T00:00:18;91.43;;;44.80;;
54197;SDS011;40105;52.366;17.000;2022-10-31T00:03:44;103.47;;;45.83;;
54197;SDS011;40105;52.366;17.000;2022-10-31T00:07:08;107.20;;;46.08;;
54197;SDS011;40105;52.366;17.000;2022-10-31T00:10:32;108.22;;;45.53;;
54197;SDS011;40105;52.366;17.000;2022-10-31T00:13:56;118.55;;;48.58;;
54197;SDS011;40105;52.366;17.000;2022-10-31T00:17:20;111.40;;;48.25;;
54197;SDS011;40105;52.366;17.000;2022-10-31T00:20:44;112.25;;;47.53;;
54197;SDS011;40105;52.366;17.000;2022-10-31T00:24:08;140.48;;;50.97;;
54197;SDS011;40105;52.366;17.000;2022-10-31T00:27:32;192.68;;;51.55;;
54197;SDS011;40105;52.366;17.000;2022-10-31T00:31:03;148.02;;;51.80;;
54197;SDS011;40105;52.366;17.000;2022-10-31T00:34:27;122.35;;;50.58;;
54197;SDS011;40105;52.366;17.000;2022-10-31T00:37:51;147.20;;;51.50;;
54197;SDS011;40105;52.366;17.000;2022-10-31T00:41:16;132.23;;;50.25;;
54197;SDS011;40105;52.366;17.000;2022-10-31T00:44:40;124.75;;;48.97;;
54197;SDS011;40105;52.366;17.000;2022-10-31T00:48:04;118.30;;;44.90;;
54197;SDS011;40105;52.366;17.000;2022-10-31T00:51:28;137.32;;;46.22;;
54197;SDS011;40105;52.366;17.000;2022-10-31T00:54:52;171.80;;;44.25;;
54197;SDS011;40105;52.366;17.000;2022-10-31T00:58:16;150.02;;;40.45;;
54197;SDS011;40105;52.366;17.000;2022-10-31T01:01:40;185.88;;;39.38;;
54197;SDS011;40105;52.366;17.000;2022-10-31T01:05:03;160.98;;;41.30;;
54197;SDS011;40105;52.366;17.000;2022-10-31T01:08:29;197.15;;;40.58;;
54197;SDS011;40105;52.366;17.000;2022-10-31T01:11:53;107.97;;;38.65;;
54197;SDS011;40105;52.366;17.000;2022-10-31T01:15:21;130.23;;;41.40;;
54197;SDS011;40105;52.366;17.000;2022-10-31T01:18:46;147.18;;;42.03;;
54197;SDS011;40105;52.366;17.000;2022-10-31T01:22:10;127.40;;;42.05;;
54197;SDS011;40105;52.366;17.000;2022-10-31T01:25:34;94.20;;;38.63;;
54197;SDS011;40105;52.366;17.000;2022-10-31T01:29:03;105.22;;;38.78;;
54197;SDS011;40105;52.366;17.000;2022-10-31T01:32:27;150.55;;;39.42;;
54197;SDS011;40105;52.366;17.000;2022-10-31T01:35:51;156.00;;;39.85;;
54197;SDS011;40105;52.366;17.000;2022-10-31T01:39:16;144.80;;;38.25;;
54197;SDS011;40105;52.366;17.000;2022-10-31T01:42:40;172.07;;;38.42;;
54197;SDS011;40105;52.366;17.000;2022-10-31T01:46:11;141.57;;;39.22;;
54197;SDS011;40105;52.366;17.000;2022-10-31T01:49:47;149.05;;;39.75;;
54197;SDS011;40105;52.366;17.000;2022-10-31T01:56:37;119.90;;;36.97;;
54197;SDS011;40105;52.366;17.000;2022-10-31T02:00:04;114.82;;;37.60;;
54197;SDS011;40105;52.366;17.000;2022-10-31T02:03:29;97.82;;;35.20;;
54197;SDS011;40105;52.366;17.000;2022-10-31T02:06:55;102.82;;;37.50;;
54197;SDS011;40105;52.366;17.000;2022-10-31T02:10:29;113.85;;;34.95;;
54197;SDS011;40105;52.366;17.000;2022-10-31T02:13:54;118.45;;;34.25;;
54197;SDS011;40105;52.366;17.000;2022-10-31T02:17:18;108.43;;;33.50;;
54197;SDS011;40105;52.366;17.000;2022-10-31T02:20:46;102.45;;;31.83;;
54197;SDS011;40105;52.366;17.000;2022-10-31T02:32:27;83.15;;;36.08;;
54197;SDS011;40105;52.366;17.000;2022-10-31T02:49:55;61.35;;;30.80;;
54197;SDS011;40105;52.366;17.000;2022-10-31T02:53:22;72.53;;;32.67;;
54197;SDS011;40105;52.366;17.000;2022-10-31T02:56:50;139.95;;;33.03;;
54197;SDS011;40105;52.366;17.000;2022-10-31T03:00:14;142.88;;;33.38;;
54197;SDS011;40105;52.366;17.000;2022-10-31T03:08:30;126.60;;;35.05;;
54197;SDS011;40105;52.366;17.000;2022-10-31T03:15:25;142.07;;;32.50;;
54197;SDS011;40105;52.366;17.000;2022-10-31T03:22:20;113.57;;;28.65;;
54197;SDS011;40105;52.366;17.000;2022-10-31T03:25:45;109.00;;;31.83;;
54197;SDS011;40105;52.366;17.000;2022-10-31T03:29:13;101.55;;;30.67;;
54197;SDS011;40105;52.366;17.000;2022-10-31T03:32:38;107.13;;;30.02;;
54197;SDS011;40105;52.366;17.000;2022-10-31T03:36:03;113.30;;;31.98;;
54197;SDS011;40105;52.366;17.000;2022-10-31T03:39:29;114.32;;;31.52;;
54197;SDS011;40105;52.366;17.000;2022-10-31T03:42:54;103.53;;;29.27;;
54197;SDS011;40105;52.366;17.000;2022-10-31T03:46:21;87.45;;;28.17;;
54197;SDS011;40105;52.366;17.000;2022-10-31T03:49:45;57.90;;;25.88;;
54197;SDS011;40105;52.366;17.000;2022-10-31T03:53:26;55.03;;;25.80;;
54197;SDS011;40105;52.366;17.000;2022-10-31T03:57:06;77.35;;;27.45;;
54197;SDS011;40105;52.366;17.000;2022-10-31T04:00:33;59.95;;;27.75;;
54197;SDS011;40105;52.366;17.000;2022-10-31T04:03:59;83.30;;;28.83;;
54197;SDS011;40105;52.366;17.000;2022-10-31T04:07:25;134.23;;;30.98;;
54197;SDS011;40105;52.366;17.000;2022-10-31T04:10:51;66.05;;;28.52;;
54197;SDS011;40105;52.366;17.000;2022-10-31T04:14:16;61.72;;;26.30;;
54197;SDS011;40105;52.366;17.000;2022-10-31T04:17:41;64.97;;;24.35;;
54197;SDS011;40105;52.366;17.000;2022-10-31T04:21:06;59.83;;;24.75;;
54197;SDS011;40105;52.366;17.000;2022-10-31T04:24:30;90.95;;;23.67;;
54197;SDS011;40105;52.366;17.000;2022-10-31T04:27:54;80.60;;;21.80;;
54197;SDS011;40105;52.366;17.000;2022-10-31T04:31:18;42.83;;;21.40;;
54197;SDS011;40105;52.366;17.000;2022-10-31T04:34:42;51.63;;;22.75;;
54197;SDS011;40105;52.366;17.000;2022-10-31T04:38:06;63.05;;;20.88;;
54197;SDS011;40105;52.366;17.000;2022-10-31T04:41:30;77.22;;;21.33;;
54197;SDS011;40105;52.366;17.000;2022-10-31T04:44:54;55.85;;;21.30;;
54197;SDS011;40105;52.366;17.000;2022-10-31T04:48:18;34.53;;;19.65;;
54197;SDS011;40105;52.366;17.000;2022-10-31T04:51:42;40.13;;;20.60;;
54197;SDS011;40105;52.366;17.000;2022-10-31T04:55:09;72.45;;;21.33;;
54197;SDS011;40105;52.366;17.000;2022-10-31T04:58:33;50.03;;;19.88;;
54197;SDS011;40105;52.366;17.000;2022-10-31T05:01:57;67.78;;;21.73;;
54197;SDS011;40105;52.366;17.000;2022-10-31T05:05:22;61.08;;;21.33;;
54197;SDS011;40105;52.366;17.000;2022-10-31T05:08:46;73.57;;;19.90;;
54197;SDS011;40105;52.366;17.000;2022-10-31T05:12:10;67.85;;;22.00;;
54197;SDS011;40105;52.366;17.000;2022-10-31T05:15:35;43.85;;;21.25;;
54197;SDS011;40105;52.366;17.000;2022-10-31T05:18:59;100.82;;;22.80;;
54197;SDS011;40105;52.366;17.000;2022-10-31T05:22:23;71.68;;;23.60;;
54197;SDS011;40105;52.366;17.000;2022-10-31T05:25:46;84.88;;;22.02;;
54197;SDS011;40105;52.366;17.000;2022-10-31T05:29:10;73.47;;;23.77;;
54197;SDS011;40105;52.366;17.000;2022-10-31T05:32:38;69.18;;;23.92;;
54197;SDS011;40105;52.366;17.000;2022-10-31T05:36:02;68.43;;;23.73;;
54197;SDS011;40105;52.366;17.000;2022-10-31T05:39:26;106.38;;;23.75;;
54197;SDS011;40105;52.366;17.000;2022-10-31T05:42:51;74.35;;;22.58;;
54197;SDS011;40105;52.366;17.000;2022-10-31T05:46:15;83.30;;;22.73;;
54197;SDS011;40105;52.366;17.000;2022-10-31T05:49:39;62.17;;;24.45;;
54197;SDS011;40105;52.366;17.000;2022-10-31T05:53:03;87.35;;;29.00;;
54197;SDS011;40105;52.366;17.000;2022-10-31T05:56:28;79.90;;;29.00;;
54197;SDS011;40105;52.366;17.000;2022-10-31T05:59:52;61.53;;;21.85;;
54197;SDS011;40105;52.366;17.000;2022-10-31T06:03:17;66.85;;;22.20;;
54197;SDS011;40105;52.366;17.000;2022-10-31T06:06:40;56.08;;;20.45;;
54197;SDS011;40105;52.366;17.000;2022-10-31T06:10:05;108.75;;;26.20;;
54197;SDS011;40105;52.366;17.000;2022-10-31T06:13:29;81.95;;;27.35;;
54197;SDS011;40105;52.366;17.000;2022-10-31T06:16:56;111.57;;;26.08;;
54197;SDS011;40105;52.366;17.000;2022-10-31T06:20:23;80.57;;;25.05;;
54197;SDS011;40105;52.366;17.000;2022-10-31T06:23:47;89.38;;;26.52;;
54197;SDS011;40105;52.366;17.000;2022-10-31T06:27:11;99.95;;;31.70;;
54197;SDS011;40105;52.366;17.000;2022-10-31T06:30:35;84.93;;;29.00;;
54197;SDS011;40105;52.366;17.000;2022-10-31T06:33:59;99.80;;;28.65;;
54197;SDS011;40105;52.366;17.000;2022-10-31T06:37:23;68.05;;;29.65;;
54197;SDS011;40105;52.366;17.000;2022-10-31T06:40:46;86.95;;;31.63;;
54197;SDS011;40105;52.366;17.000;2022-10-31T06:44:12;88.75;;;26.33;;
54197;SDS011;40105;52.366;17.000;2022-10-31T06:47:36;73.85;;;25.55;;
54197;SDS011;40105;52.366;17.000;2022-10-31T06:51:00;74.05;;;27.95;;
54197;SDS011;40105;52.366;17.000;2022-10-31T06:54:24;95.07;;;26.52;;
54197;SDS011;40105;52.366;17.000;2022-10-31T06:57:52;63.97;;;23.98;;
54197;SDS011;40105;52.366;17.000;2022-10-31T07:01:16;79.05;;;25.60;;
54197;SDS011;40105;52.366;17.000;2022-10-31T07:04:40;61.58;;;24.02;;
54197;SDS011;40105;52.366;17.000;2022-10-31T07:08:05;69.47;;;24.38;;
54197;SDS011;40105;52.366;17.000;2022-10-31T07:11:29;46.80;;;22.77;;
54197;SDS011;40105;52.366;17.000;2022-10-31T07:14:53;61.60;;;22.70;;
54197;SDS011;40105;52.366;17.000;2022-10-31T07:18:18;47.03;;;21.58;;
54197;SDS011;40105;52.366;17.000;2022-10-31T07:21:42;42.80;;;22.73;;
54197;SDS011;40105;52.366;17.000;2022-10-31T07:25:06;43.85;;;21.67;;
54197;SDS011;40105;52.366;17.000;2022-10-31T07:28:30;38.80;;;20.50;;
54197;SDS011;40105;52.366;17.000;2022-10-31T07:31:53;83.45;;;20.98;;
54197;SDS011;40105;52.366;17.000;2022-10-31T07:35:21;58.90;;;20.25;;
54197;SDS011;40105;52.366;17.000;2022-10-31T07:38:46;67.03;;;19.30;;
54197;SDS011;40105;52.366;17.000;2022-10-31T07:42:09;73.60;;;19.58;;
54197;SDS011;40105;52.366;17.000;2022-10-31T07:45:33;57.58;;;17.90;;
54197;SDS011;40105;52.366;17.000;2022-10-31T07:48:58;46.20;;;18.08;;
54197;SDS011;40105;52.366;17.000;2022-10-31T07:52:21;64.13;;;17.55;;
54197;SDS011;40105;52.366;17.000;2022-10-31T07:55:45;37.80;;;15.75;;
54197;SDS011;40105;52.366;17.000;2022-10-31T07:59:09;38.75;;;17.10;;
54197;SDS011;40105;52.366;17.000;2022-10-31T08:02:34;35.78;;;15.68;;
54197;SDS011;40105;52.366;17.000;2022-10-31T08:05:57;25.98;;;17.10;;
54197;SDS011;40105;52.366;17.000;2022-10-31T08:09:21;32.45;;;18.95;;
54197;SDS011;40105;52.366;17.000;2022-10-31T08:12:45;28.90;;;17.25;;
54197;SDS011;40105;52.366;17.000;2022-10-31T08:16:09;32.40;;;17.70;;
54197;SDS011;40105;52.366;17.000;2022-10-31T08:19:33;49.92;;;22.30;;
54197;SDS011;40105;52.366;17.000;2022-10-31T08:22:58;67.93;;;24.98;;
54197;SDS011;40105;52.366;17.000;2022-10-31T08:26:22;50.25;;;21.42;;
54197;SDS011;40105;52.366;17.000;2022-10-31T08:29:46;41.28;;;21.52;;
54197;SDS011;40105;52.366;17.000;2022-10-31T08:36:34;50.13;;;23.15;;
54197;SDS011;40105;52.366;17.000;2022-10-31T08:39:58;53.22;;;23.55;;
54197;SDS011;40105;52.366;17.000;2022-10-31T08:43:22;35.17;;;22.73;;
54197;SDS011;40105;52.366;17.000;2022-10-31T08:46:46;46.38;;;23.13;;
54197;SDS011;40105;52.366;17.000;2022-10-31T08:50:09;40.90;;;23.88;;
54197;SDS011;40105;52.366;17.000;2022-10-31T08:53:33;42.80;;;24.88;;
54197;SDS011;40105;52.366;17.000;2022-10-31T08:56:57;52.40;;;26.33;;
54197;SDS011;40105;52.366;17.000;2022-10-31T09:00:21;46.53;;;26.50;;
54197;SDS011;40105;52.366;17.000;2022-10-31T09:03:45;57.92;;;27.67;;
54197;SDS011;40105;52.366;17.000;2022-10-31T09:07:09;53.55;;;27.77;;
54197;SDS011;40105;52.366;17.000;2022-10-31T09:10:34;37.67;;;24.42;;
54197;SDS011;40105;52.366;17.000;2022-10-31T09:13:58;45.65;;;26.80;;
54197;SDS011;40105;52.366;17.000;2022-10-31T09:17:22;47.42;;;29.20;;
54197;SDS011;40105;52.366;17.000;2022-10-31T09:20:47;52.35;;;27.52;;
54197;SDS011;40105;52.366;17.000;2022-10-31T09:24:11;66.80;;;30.50;;
54197;SDS011;40105;52.366;17.000;2022-10-31T09:27:35;66.25;;;27.38;;
54197;SDS011;40105;52.366;17.000;2022-10-31T09:30:59;38.47;;;25.23;;
54197;SDS011;40105;52.366;17.000;2022-10-31T09:34:23;46.72;;;23.50;;
54197;SDS011;40105;52.366;17.000;2022-10-31T09:37:47;35.88;;;19.50;;
54197;SDS011;40105;52.366;17.000;2022-10-31T09:41:18;37.80;;;19.02;;
54197;SDS011;40105;52.366;17.000;2022-10-31T09:45:45;41.17;;;18.60;;
54197;SDS011;40105;52.366;17.000;2022-10-31T09:52:53;42.20;;;19.13;;
54197;SDS011;40105;52.366;17.000;2022-10-31T09:56:21;49.30;;;19.42;;
54197;SDS011;40105;52.366;17.000;2022-10-31T09:59:50;35.30;;;17.07;;
54197;SDS011;40105;52.366;17.000;2022-10-31T10:03:24;33.30;;;18.33;;
54197;SDS011;40105;52.366;17.000;2022-10-31T10:06:56;45.47;;;19.83;;
54197;SDS011;40105;52.366;17.000;2022-10-31T10:10:40;44.13;;;20.20;;
54197;SDS011;40105;52.366;17.000;2022-10-31T10:17:58;38.58;;;20.17;;
54197;SDS011;40105;52.366;17.000;2022-10-31T10:28:44;40.28;;;16.05;;
54197;SDS011;40105;52.366;17.000;2022-10-31T10:32:17;38.30;;;15.10;;
54197;SDS011;40105;52.366;17.000;2022-10-31T10:35:45;27.50;;;13.80;;
54197;SDS011;40105;52.366;17.000;2022-10-31T10:39:22;45.75;;;16.70;;
54197;SDS011;40105;52.366;17.000;2022-10-31T10:46:39;31.02;;;14.35;;
54197;SDS011;40105;52.366;17.000;2022-10-31T10:50:10;31.55;;;14.20;;
54197;SDS011;40105;52.366;17.000;2022-10-31T10:53:58;34.97;;;15.10;;
54197;SDS011;40105;52.366;17.000;2022-10-31T11:01:14;29.02;;;14.65;;
54197;SDS011;40105;52.366;17.000;2022-10-31T11:04:43;39.17;;;15.75;;
54197;SDS011;40105;52.366;17.000;2022-10-31T11:08:09;32.25;;;14.18;;
54197;SDS011;40105;52.366;17.000;2022-10-31T11:11:34;32.38;;;13.35;;
54197;SDS011;40105;52.366;17.000;2022-10-31T11:15:00;29.13;;;15.90;;
54197;SDS011;40105;52.366;17.000;2022-10-31T11:18:34;32.90;;;17.17;;
54197;SDS011;40105;52.366;17.000;2022-10-31T11:22:05;30.10;;;15.70;;
54197;SDS011;40105;52.366;17.000;2022-10-31T11:26:04;31.17;;;15.52;;
54197;SDS011;40105;52.366;17.000;2022-10-31T11:29:44;41.50;;;15.63;;
54197;SDS011;40105;52.366;17.000;2022-10-31T11:33:19;35.53;;;15.50;;
54197;SDS011;40105;52.366;17.000;2022-10-31T11:37:01;33.72;;;16.27;;
54197;SDS011;40105;52.366;17.000;2022-10-31T11:40:26;34.08;;;15.52;;
54197;SDS011;40105;52.366;17.000;2022-10-31T11:43:53;31.92;;;14.98;;
54197;SDS011;40105;52.366;17.000;2022-10-31T11:47:21;37.35;;;16.40;;
54197;SDS011;40105;52.366;17.000;2022-10-31T11:50:48;40.50;;;14.50;;
54197;SDS011;40105;52.366;17.000;2022-10-31T11:54:21;25.80;;;13.77;;
54197;SDS011;40105;52.366;17.000;2022-10-31T11:58:01;31.20;;;14.50;;
54197;SDS011;40105;52.366;17.000;2022-10-31T12:01:27;33.97;;;14.60;;
54197;SDS011;40105;52.366;17.000;2022-10-31T12:04:55;35.80;;;13.13;;
54197;SDS011;40105;52.366;17.000;2022-10-31T12:08:29;33.40;;;13.30;;
54197;SDS011;40105;52.366;17.000;2022-10-31T12:15:38;38.90;;;13.52;;
54197;SDS011;40105;52.366;17.000;2022-10-31T12:22:54;32.10;;;14.13;;
54197;SDS011;40105;52.366;17.000;2022-10-31T12:45:39;34.72;;;14.13;;
54197;SDS011;40105;52.366;17.000;2022-10-31T12:49:28;38.38;;;14.93;;
54197;SDS011;40105;52.366;17.000;2022-10-31T12:53:08;29.75;;;13.07;;
54197;SDS011;40105;52.366;17.000;2022-10-31T13:00:23;30.02;;;13.95;;
54197;SDS011;40105;52.366;17.000;2022-10-31T13:03:53;33.90;;;15.35;;
54197;SDS011;40105;52.366;17.000;2022-10-31T13:07:27;31.40;;;14.48;;
54197;SDS011;40105;52.366;17.000;2022-10-31T13:14:34;23.25;;;11.80;;
54197;SDS011;40105;52.366;17.000;2022-10-31T13:18:02;33.33;;;14.20;;
54197;SDS011;40105;52.366;17.000;2022-10-31T13:21:33;29.52;;;13.35;;
54197;SDS011;40105;52.366;17.000;2022-10-31T13:25:03;76.40;;;18.20;;
54197;SDS011;40105;52.366;17.000;2022-10-31T13:32:30;40.95;;;13.45;;
54197;SDS011;40105;52.366;17.000;2022-10-31T13:39:55;31.08;;;12.40;;
54197;SDS011;40105;52.366;17.000;2022-10-31T13:46:58;44.80;;;12.85;;
54197;SDS011;40105;52.366;17.000;2022-10-31T13:50:40;24.42;;;11.95;;
54197;SDS011;40105;52.366;17.000;2022-10-31T13:54:20;26.67;;;12.15;;
54197;SDS011;40105;52.366;17.000;2022-10-31T13:57:59;28.40;;;13.43;;
54197;SDS011;40105;52.366;17.000;2022-10-31T14:01:27;37.20;;;12.75;;
54197;SDS011;40105;52.366;17.000;2022-10-31T14:05:00;40.42;;;12.73;;
54197;SDS011;40105;52.366;17.000;2022-10-31T14:08:25;31.42;;;13.85;;
54197;SDS011;40105;52.366;17.000;2022-10-31T14:11:50;36.08;;;11.60;;
54197;SDS011;40105;52.366;17.000;2022-10-31T14:18:47;41.17;;;11.75;;
54197;SDS011;40105;52.366;17.000;2022-10-31T14:22:46;37.20;;;13.38;;
54197;SDS011;40105;52.366;17.000;2022-10-31T14:29:49;27.65;;;10.13;;
54197;SDS011;40105;52.366;17.000;2022-10-31T14:33:20;28.77;;;12.68;;
54197;SDS011;40105;52.366;17.000;2022-10-31T14:47:58;31.60;;;10.77;;
54197;SDS011;40105;52.366;17.000;2022-10-31T14:51:41;43.08;;;11.48;;
54197;SDS011;40105;52.366;17.000;2022-10-31T14:55:06;37.45;;;15.48;;
54197;SDS011;40105;52.366;17.000;2022-10-31T14:58:41;97.43;;;32.15;;
54197;SDS011;40105;52.366;17.000;2022-10-31T15:02:09;111.30;;;36.35;;
54197;SDS011;40105;52.366;17.000;2022-10-31T15:05:40;46.72;;;17.92;;
54197;SDS011;40105;52.366;17.000;2022-10-31T15:09:19;263.80;;;58.13;;
54197;SDS011;40105;52.366;17.000;2022-10-31T15:12:45;182.20;;;51.33;;
54197;SDS011;40105;52.366;17.000;2022-10-31T15:16:10;79.40;;;20.73;;
54197;SDS011;40105;52.366;17.000;2022-10-31T15:19:35;77.40;;;23.83;;
54197;SDS011;40105;52.366;17.000;2022-10-31T15:23:02;57.38;;;18.35;;
54197;SDS011;40105;52.366;17.000;2022-10-31T15:26:31;48.25;;;17.58;;
54197;SDS011;40105;52.366;17.000;2022-10-31T15:29:58;42.10;;;16.83;;
54197;SDS011;40105;52.366;17.000;2022-10-31T15:33:39;45.35;;;16.10;;
54197;SDS011;40105;52.366;17.000;2022-10-31T15:37:03;56.13;;;16.20;;
54197;SDS011;40105;52.366;17.000;2022-10-31T15:40:28;35.63;;;15.82;;
54197;SDS011;40105;52.366;17.000;2022-10-31T15:43:56;46.25;;;16.15;;
54197;SDS011;40105;52.366;17.000;2022-10-31T15:47:25;52.53;;;15.55;;
54197;SDS011;40105;52.366;17.000;2022-10-31T15:54:13;34.75;;;17.05;;
54197;SDS011;40105;52.366;17.000;2022-10-31T15:57:43;34.70;;;15.23;;
54197;SDS011;40105;52.366;17.000;2022-10-31T16:04:53;38.08;;;15.77;;
54197;SDS011;40105;52.366;17.000;2022-10-31T16:11:51;37.63;;;17.42;;
54197;SDS011;40105;52.366;17.000;2022-10-31T16:15:16;33.30;;;16.77;;
54197;SDS011;40105;52.366;17.000;2022-10-31T16:18:40;39.03;;;16.38;;
54197;SDS011;40105;52.366;17.000;2022-10-31T16:22:25;43.05;;;17.17;;
54197;SDS011;40105;52.366;17.000;2022-10-31T16:25:50;38.50;;;17.20;;
54197;SDS011;40105;52.366;17.000;2022-10-31T16:29:31;40.00;;;17.83;;
54197;SDS011;40105;52.366;17.000;2022-10-31T16:33:04;37.13;;;16.98;;
54197;SDS011;40105;52.366;17.000;2022-10-31T16:36:30;44.67;;;17.80;;
54197;SDS011;40105;52.366;17.000;2022-10-31T16:39:54;36.95;;;15.43;;
54197;SDS011;40105;52.366;17.000;2022-10-31T16:43:19;34.95;;;16.58;;
54197;SDS011;40105;52.366;17.000;2022-10-31T16:46:46;44.38;;;18.55;;
54197;SDS011;40105;52.366;17.000;2022-10-31T16:50:11;44.22;;;16.50;;
54197;SDS011;40105;52.366;17.000;2022-10-31T16:53:36;43.47;;;18.20;;
54197;SDS011;40105;52.366;17.000;2022-10-31T16:57:00;49.35;;;18.27;;
54197;SDS011;40105;52.366;17.000;2022-10-31T17:00:24;35.08;;;16.10;;
54197;SDS011;40105;52.366;17.000;2022-10-31T17:03:48;47.33;;;17.05;;
54197;SDS011;40105;52.366;17.000;2022-10-31T17:07:12;33.17;;;15.73;;
54197;SDS011;40105;52.366;17.000;2022-10-31T17:10:36;42.78;;;16.95;;
54197;SDS011;40105;52.366;17.000;2022-10-31T17:14:01;43.05;;;18.25;;
54197;SDS011;40105;52.366;17.000;2022-10-31T17:17:26;45.50;;;18.80;;
54197;SDS011;40105;52.366;17.000;2022-10-31T17:20:50;60.70;;;20.38;;
54197;SDS011;40105;52.366;17.000;2022-10-31T17:24:18;44.65;;;21.58;;
54197;SDS011;40105;52.366;17.000;2022-10-31T17:27:46;40.75;;;19.77;;
54197;SDS011;40105;52.366;17.000;2022-10-31T17:31:19;42.42;;;20.67;;
54197;SDS011;40105;52.366;17.000;2022-10-31T17:34:43;58.97;;;25.65;;
54197;SDS011;40105;52.366;17.000;2022-10-31T17:38:08;50.22;;;26.20;;
54197;SDS011;40105;52.366;17.000;2022-10-31T17:41:33;50.83;;;24.20;;
54197;SDS011;40105;52.366;17.000;2022-10-31T17:44:57;62.85;;;28.20;;
54197;SDS011;40105;52.366;17.000;2022-10-31T17:48:23;51.55;;;24.52;;
54197;SDS011;40105;52.366;17.000;2022-10-31T17:51:46;63.53;;;28.45;;
54197;SDS011;40105;52.366;17.000;2022-10-31T17:55:10;76.70;;;29.33;;
54197;SDS011;40105;52.366;17.000;2022-10-31T17:58:35;55.72;;;28.02;;
54197;SDS011;40105;52.366;17.000;2022-10-31T18:01:59;101.80;;;32.90;;
54197;SDS011;40105;52.366;17.000;2022-10-31T18:05:23;113.95;;;34.60;;
54197;SDS011;40105;52.366;17.000;2022-10-31T18:08:46;83.25;;;32.42;;
54197;SDS011;40105;52.366;17.000;2022-10-31T18:12:10;93.35;;;32.30;;
54197;SDS011;40105;52.366;17.000;2022-10-31T18:15:37;101.22;;;32.92;;
54197;SDS011;40105;52.366;17.000;2022-10-31T18:19:01;145.18;;;33.97;;
54197;SDS011;40105;52.366;17.000;2022-10-31T18:22:25;102.20;;;33.25;;
54197;SDS011;40105;52.366;17.000;2022-10-31T18:25:49;128.88;;;35.53;;
54197;SDS011;40105;52.366;17.000;2022-10-31T18:29:14;116.82;;;32.90;;
54197;SDS011;40105;52.366;17.000;2022-10-31T18:32:38;101.63;;;35.08;;
54197;SDS011;40105;52.366;17.000;2022-10-31T18:36:05;143.60;;;36.10;;
54197;SDS011;40105;52.366;17.000;2022-10-31T18:39:29;131.85;;;36.30;;
54197;SDS011;40105;52.366;17.000;2022-10-31T18:42:53;165.68;;;34.63;;
54197;SDS011;40105;52.366;17.000;2022-10-31T18:46:20;102.03;;;32.53;;
54197;SDS011;40105;52.366;17.000;2022-10-31T18:49:44;105.85;;;34.17;;
54197;SDS011;40105;52.366;17.000;2022-10-31T18:53:08;151.82;;;38.67;;
54197;SDS011;40105;52.366;17.000;2022-10-31T18:56:32;101.13;;;33.38;;
54197;SDS011;40105;52.366;17.000;2022-10-31T18:59:56;90.57;;;30.58;;
54197;SDS011;40105;52.366;17.000;2022-10-31T19:03:19;112.88;;;32.22;;
54197;SDS011;40105;52.366;17.000;2022-10-31T19:06:43;110.03;;;32.85;;
54197;SDS011;40105;52.366;17.000;2022-10-31T19:10:07;83.13;;;32.13;;
54197;SDS011;40105;52.366;17.000;2022-10-31T19:13:33;98.43;;;30.60;;
54197;SDS011;40105;52.366;17.000;2022-10-31T19:16:57;62.72;;;30.33;;
54197;SDS011;40105;52.366;17.000;2022-10-31T19:20:21;100.95;;;28.73;;
54197;SDS011;40105;52.366;17.000;2022-10-31T19:23:45;95.63;;;28.20;;
54197;SDS011;40105;52.366;17.000;2022-10-31T19:27:08;80.03;;;26.42;;
54197;SDS011;40105;52.366;17.000;2022-10-31T19:30:32;89.72;;;26.77;;
54197;SDS011;40105;52.366;17.000;2022-10-31T19:33:56;79.50;;;28.17;;
54197;SDS011;40105;52.366;17.000;2022-10-31T19:37:20;62.83;;;26.25;;
54197;SDS011;40105;52.366;17.000;2022-10-31T19:40:44;79.55;;;25.05;;
54197;SDS011;40105;52.366;17.000;2022-10-31T19:44:08;77.93;;;26.25;;
54197;SDS011;40105;52.366;17.000;2022-10-31T19:47:32;101.90;;;29.65;;
54197;SDS011;40105;52.366;17.000;2022-10-31T19:51:03;88.43;;;28.50;;
54197;SDS011;40105;52.366;17.000;2022-10-31T19:54:28;74.38;;;26.00;;
54197;SDS011;40105;52.366;17.000;2022-10-31T19:57:51;73.32;;;25.40;;
54197;SDS011;40105;52.366;17.000;2022-10-31T20:01:16;87.82;;;28.60;;
54197;SDS011;40105;52.366;17.000;2022-10-31T20:04:43;111.15;;;27.90;;
54197;SDS011;40105;52.366;17.000;2022-10-31T20:08:14;173.32;;;28.30;;
54197;SDS011;40105;52.366;17.000;2022-10-31T20:11:39;99.60;;;24.83;;
54197;SDS011;40105;52.366;17.000;2022-10-31T20:15:03;105.07;;;25.60;;
54197;SDS011;40105;52.366;17.000;2022-10-31T20:18:29;98.28;;;24.00;;
54197;SDS011;40105;52.366;17.000;2022-10-31T20:21:52;99.60;;;26.13;;
54197;SDS011;40105;52.366;17.000;2022-10-31T20:25:16;90.18;;;25.92;;
54197;SDS011;40105;52.366;17.000;2022-10-31T20:28:41;123.97;;;27.50;;
54197;SDS011;40105;52.366;17.000;2022-10-31T20:32:05;159.00;;;27.55;;
54197;SDS011;40105;52.366;17.000;2022-10-31T20:35:29;130.02;;;27.83;;
54197;SDS011;40105;52.366;17.000;2022-10-31T20:38:53;89.18;;;28.60;;
54197;SDS011;40105;52.366;17.000;2022-10-31T20:42:17;177.52;;;30.33;;
54197;SDS011;40105;52.366;17.000;2022-10-31T20:45:42;130.18;;;31.13;;
54197;SDS011;40105;52.366;17.000;2022-10-31T20:49:06;133.85;;;30.75;;
54197;SDS011;40105;52.366;17.000;2022-10-31T20:52:30;187.25;;;33.65;;
54197;SDS011;40105;52.366;17.000;2022-10-31T20:56:00;146.15;;;34.47;;
54197;SDS011;40105;52.366;17.000;2022-10-31T20:59:25;131.25;;;35.05;;
54197;SDS011;40105;52.366;17.000;2022-10-31T21:02:48;174.48;;;33.85;;
54197;SDS011;40105;52.366;17.000;2022-10-31T21:06:13;113.10;;;33.45;;
54197;SDS011;40105;52.366;17.000;2022-10-31T21:09:36;112.35;;;33.83;;
54197;SDS011;40105;52.366;17.000;2022-10-31T21:13:00;112.00;;;34.42;;
54197;SDS011;40105;52.366;17.000;2022-10-31T21:16:29;128.18;;;35.15;;
54197;SDS011;40105;52.366;17.000;2022-10-31T21:19:53;142.60;;;35.40;;
54197;SDS011;40105;52.366;17.000;2022-10-31T21:23:17;146.90;;;33.22;;
54197;SDS011;40105;52.366;17.000;2022-10-31T21:26:43;119.53;;;33.03;;
54197;SDS011;40105;52.366;17.000;2022-10-31T21:30:07;105.20;;;32.97;;
54197;SDS011;40105;52.366;17.000;2022-10-31T21:33:32;135.30;;;35.95;;
54197;SDS011;40105;52.366;17.000;2022-10-31T21:36:56;123.03;;;34.60;;
54197;SDS011;40105;52.366;17.000;2022-10-31T21:40:22;94.20;;;34.65;;
54197;SDS011;40105;52.366;17.000;2022-10-31T21:43:46;140.40;;;34.95;;
54197;SDS011;40105;52.366;17.000;2022-10-31T21:47:10;112.53;;;33.53;;
54197;SDS011;40105;52.366;17.000;2022-10-31T21:50:34;132.65;;;33.17;;
54197;SDS011;40105;52.366;17.000;2022-10-31T21:53:58;93.80;;;32.85;;
54197;SDS011;40105;52.366;17.000;2022-10-31T21:57:22;101.63;;;31.10;;
54197;SDS011;40105;52.366;17.000;2022-10-31T22:00:46;113.53;;;32.60;;
54197;SDS011;40105;52.366;17.000;2022-10-31T22:04:10;92.70;;;31.42;;